Kailua, HI

2:46 PM HST on September 20, 2014 (GMT -1000)
Kaneohe Bay Marine Corps Air Facility | Change Station
CLOSE
Current Station
Airport
Location: Kaneohe MCBH,
Elevation: 23 ft
Nearby Weather Stations

Elev 23 ft 21.45 °N, 157.76 °W | Updated 49 minutes ago

Clear
Clear
86 °F
Feels Like 93 °F
N
10
Wind Variable Wind from ENE

Today
High -- | Low -- °F
--% Chance of Precip.
Yesterday
High -- | Low -- °F
Precip. -- in
6:19 AM 6:28 PM
Waning Crescent, 9% visible
Pressure 29.88 in
Visibility 10.0 miles
Clouds Clear
Heat Index 93 °F
Dew Point 73 °F
Humidity 65%
Rainfall 0.00 in
Snow Depth Not available.
UV 10 out of 12
Pollen Not available.
Air Quality Not available.
Flu Activity Not available.
METAR PHNG 202357Z 07009KT 10SM CLR 30/23 A2989 RMK AO2 SLP118 T03000228 10300 20261 56020 $

More Conditions Fewer Conditions

Pressure 29.88 in
Visibility 10.0 miles
Clouds Clear
Heat Index 93 °F
Dew Point 73 °F
Humidity 65%
Rainfall 0.00 in
Snow Depth Not available.
UV 10 out of 12
Pollen Not available.
Air Quality Not available.
Flu Activity Not available.
METAR PHNG 202357Z 07009KT 10SM CLR 30/23 A2989 RMK AO2 SLP118 T03000228 10300 20261 56020 $

More Conditions Fewer Conditions

10-Day Weather Forecast

Almanac

Astronomy

Sep. 20, 2014 Rise Set
Actual Time 6:19 AM HST 6:28 PM HST
Civil Twilight 5:57 AM HST 6:51 PM HST
Nautical Twilight 5:31 AM HST 7:16 PM HST
Astronomical Twilight 5:05 AM HST 7:42 PM HST
Moon 3:27 AM HST (9/20) 4:22 PM HST (9/20)
Length of Visible Light 12h 54m
Length of Day
12h 09m
Tomorrow will be 1m 14s shorter.
Waning Crescent, 9% of the Moon is Illuminated
Today
Waning Crescent
Sep 24
New
Oct 1
First Quarter
Oct 8
Full
Oct 15
Last Quarter

Today's Extremes

State Highs State Lows

Community

WunderPhotos

Upload Photos

1,755,000 photos uploaded!

WunderBlogs® & News

Nearby

Snow Depth

Station Depth Elevation
No new snow has been reported.

Earthquake Activity

City Distance Mag. Time & Date
No recent earthquake activity has been reported nearby.
Minimum magnitude displayed is 2.5.

Coastal Water Temperatures

Place Temperature
No Stations Reporting

Nearby Weather Stations